sensor_id;sensor_type;location;lat;lon;timestamp;pressure;altitude;pressure_sealevel;temperature;humidity
74615;BME280;63121;51.458;-0.110;2022-10-29T00:00:35;101728.75;;;15.20;73.17
74615;BME280;63121;51.458;-0.110;2022-10-29T00:03:01;101730.47;;;15.21;73.48
74615;BME280;63121;51.458;-0.110;2022-10-29T00:05:26;101731.38;;;15.20;73.23
74615;BME280;63121;51.458;-0.110;2022-10-29T00:07:52;101720.97;;;15.19;73.13
74615;BME280;63121;51.458;-0.110;2022-10-29T00:10:17;101717.44;;;15.23;73.27
74615;BME280;63121;51.458;-0.110;2022-10-29T00:12:42;101718.44;;;15.14;73.41
74615;BME280;63121;51.458;-0.110;2022-10-29T00:15:09;101715.84;;;15.13;73.24
74615;BME280;63121;51.458;-0.110;2022-10-29T00:17:34;101715.09;;;15.06;73.67
74615;BME280;63121;51.458;-0.110;2022-10-29T00:19:59;101695.22;;;15.00;73.84
74615;BME280;63121;51.458;-0.110;2022-10-29T00:22:25;101689.16;;;15.00;73.99
74615;BME280;63121;51.458;-0.110;2022-10-29T00:24:50;101678.75;;;15.00;73.55
74615;BME280;63121;51.458;-0.110;2022-10-29T00:27:16;101672.59;;;15.07;73.33
74615;BME280;63121;51.458;-0.110;2022-10-29T00:29:41;101665.78;;;14.98;73.95
74615;BME280;63121;51.458;-0.110;2022-10-29T00:32:06;101662.31;;;14.99;73.43
74615;BME280;63121;51.458;-0.110;2022-10-29T00:34:34;101652.75;;;15.00;73.35
74615;BME280;63121;51.458;-0.110;2022-10-29T00:37:01;101651.09;;;14.96;73.29
74615;BME280;63121;51.458;-0.110;2022-10-29T00:39:26;101656.38;;;14.90;73.85
74615;BME280;63121;51.458;-0.110;2022-10-29T00:41:54;101663.31;;;14.89;73.30
74615;BME280;63121;51.458;-0.110;2022-10-29T00:44:24;101667.53;;;14.96;73.18
74615;BME280;63121;51.458;-0.110;2022-10-29T00:46:59;101684.13;;;14.89;73.78
74615;BME280;63121;51.458;-0.110;2022-10-29T00:49:27;101682.44;;;14.87;73.89
74615;BME280;63121;51.458;-0.110;2022-10-29T00:51:53;101686.78;;;14.83;73.54
74615;BME280;63121;51.458;-0.110;2022-10-29T00:54:19;101680.66;;;14.89;73.87
74615;BME280;63121;51.458;-0.110;2022-10-29T00:56:51;101671.13;;;14.88;74.07
74615;BME280;63121;51.458;-0.110;2022-10-29T00:59:18;101662.38;;;14.95;73.25
74615;BME280;63121;51.458;-0.110;2022-10-29T01:01:45;101675.25;;;15.04;72.94
74615;BME280;63121;51.458;-0.110;2022-10-29T01:04:11;101668.94;;;15.20;72.03
74615;BME280;63121;51.458;-0.110;2022-10-29T01:06:37;101668.19;;;15.14;72.41
74615;BME280;63121;51.458;-0.110;2022-10-29T01:09:03;101660.25;;;15.21;72.29
74615;BME280;63121;51.458;-0.110;2022-10-29T01:16:48;101659.13;;;15.38;71.26
74615;BME280;63121;51.458;-0.110;2022-10-29T01:33:23;101640.84;;;15.42;71.70
74615;BME280;63121;51.458;-0.110;2022-10-29T01:38:33;101651.97;;;15.52;72.25
74615;BME280;63121;51.458;-0.110;2022-10-29T01:41:28;101646.66;;;15.57;72.42
74615;BME280;63121;51.458;-0.110;2022-10-29T01:44:40;101635.66;;;15.41;73.44
74615;BME280;63121;51.458;-0.110;2022-10-29T01:47:19;101633.03;;;15.42;74.00
74615;BME280;63121;51.458;-0.110;2022-10-29T01:49:49;101630.38;;;15.45;74.33
74615;BME280;63121;51.458;-0.110;2022-10-29T01:52:17;101628.56;;;15.51;74.80
74615;BME280;63121;51.458;-0.110;2022-10-29T01:54:45;101619.81;;;15.55;74.59
74615;BME280;63121;51.458;-0.110;2022-10-29T01:59:48;101609.41;;;15.53;75.23
74615;BME280;63121;51.458;-0.110;2022-10-29T02:07:55;101614.59;;;15.55;75.31
74615;BME280;63121;51.458;-0.110;2022-10-29T02:10:44;101601.50;;;15.59;75.47
74615;BME280;63121;51.458;-0.110;2022-10-29T02:13:13;101600.78;;;15.51;75.49
74615;BME280;63121;51.458;-0.110;2022-10-29T02:15:47;101594.53;;;15.61;75.97
74615;BME280;63121;51.458;-0.110;2022-10-29T02:18:14;101584.94;;;15.63;76.34
74615;BME280;63121;51.458;-0.110;2022-10-29T02:20:41;101576.34;;;15.60;76.20
74615;BME280;63121;51.458;-0.110;2022-10-29T02:23:07;101574.66;;;15.57;76.56
74615;BME280;63121;51.458;-0.110;2022-10-29T02:25:32;101574.72;;;15.56;76.44
74615;BME280;63121;51.458;-0.110;2022-10-29T02:27:58;101581.59;;;15.57;76.61
74615;BME280;63121;51.458;-0.110;2022-10-29T02:30:23;101569.34;;;15.62;77.02
74615;BME280;63121;51.458;-0.110;2022-10-29T02:32:48;101575.44;;;15.62;77.43
74615;BME280;63121;51.458;-0.110;2022-10-29T02:35:14;101565.06;;;15.59;77.45
74615;BME280;63121;51.458;-0.110;2022-10-29T02:37:39;101558.16;;;15.58;77.44
74615;BME280;63121;51.458;-0.110;2022-10-29T02:40:05;101540.81;;;15.57;78.01
74615;BME280;63121;51.458;-0.110;2022-10-29T02:42:31;101534.84;;;15.54;78.05
74615;BME280;63121;51.458;-0.110;2022-10-29T02:44:56;101535.50;;;15.63;78.00
74615;BME280;63121;51.458;-0.110;2022-10-29T02:47:21;101529.50;;;15.60;78.36
74615;BME280;63121;51.458;-0.110;2022-10-29T02:49:47;101529.38;;;15.66;78.37
74615;BME280;63121;51.458;-0.110;2022-10-29T02:52:12;101523.41;;;15.62;78.91
74615;BME280;63121;51.458;-0.110;2022-10-29T02:54:38;101502.81;;;15.50;79.02
74615;BME280;63121;51.458;-0.110;2022-10-29T02:57:04;101492.31;;;15.53;79.65
74615;BME280;63121;51.458;-0.110;2022-10-29T02:59:30;101487.22;;;15.49;79.51
74615;BME280;63121;51.458;-0.110;2022-10-29T03:01:55;101482.78;;;15.54;79.45
74615;BME280;63121;51.458;-0.110;2022-10-29T03:04:20;101479.38;;;15.50;79.33
74615;BME280;63121;51.458;-0.110;2022-10-29T03:06:46;101484.34;;;15.62;79.08
74615;BME280;63121;51.458;-0.110;2022-10-29T03:09:11;101482.56;;;15.64;79.45
74615;BME280;63121;51.458;-0.110;2022-10-29T03:11:37;101474.78;;;15.63;79.76
74615;BME280;63121;51.458;-0.110;2022-10-29T03:14:02;101463.47;;;15.64;79.54
74615;BME280;63121;51.458;-0.110;2022-10-29T03:16:27;101458.31;;;15.62;79.49
74615;BME280;63121;51.458;-0.110;2022-10-29T03:18:53;101456.47;;;15.68;79.42
74615;BME280;63121;51.458;-0.110;2022-10-29T03:21:18;101452.94;;;15.72;79.02
74615;BME280;63121;51.458;-0.110;2022-10-29T03:23:44;101454.78;;;15.67;79.23
74615;BME280;63121;51.458;-0.110;2022-10-29T03:26:09;101459.09;;;15.66;79.41
74615;BME280;63121;51.458;-0.110;2022-10-29T03:28:37;101461.59;;;15.74;78.96
74615;BME280;63121;51.458;-0.110;2022-10-29T03:31:02;101461.50;;;15.77;79.28
74615;BME280;63121;51.458;-0.110;2022-10-29T03:33:28;101460.63;;;15.78;79.21
74615;BME280;63121;51.458;-0.110;2022-10-29T03:36:04;101445.03;;;15.76;79.11
74615;BME280;63121;51.458;-0.110;2022-10-29T03:38:30;101431.19;;;15.74;79.61
74615;BME280;63121;51.458;-0.110;2022-10-29T03:40:56;101449.47;;;15.71;79.06
74615;BME280;63121;51.458;-0.110;2022-10-29T03:43:22;101426.06;;;15.70;79.09
74615;BME280;63121;51.458;-0.110;2022-10-29T03:45:55;101409.78;;;15.60;80.00
74615;BME280;63121;51.458;-0.110;2022-10-29T03:48:22;101401.81;;;15.68;79.62
74615;BME280;63121;51.458;-0.110;2022-10-29T03:50:58;101412.03;;;15.78;79.07
74615;BME280;63121;51.458;-0.110;2022-10-29T03:53:25;101412.00;;;15.80;78.91
74615;BME280;63121;51.458;-0.110;2022-10-29T03:55:52;101414.59;;;15.81;78.80
74615;BME280;63121;51.458;-0.110;2022-10-29T03:58:17;101405.00;;;15.83;79.13
74615;BME280;63121;51.458;-0.110;2022-10-29T04:00:43;101391.91;;;15.85;79.25
74615;BME280;63121;51.458;-0.110;2022-10-29T04:03:08;101384.06;;;15.88;79.10
74615;BME280;63121;51.458;-0.110;2022-10-29T04:05:34;101389.25;;;15.88;79.13
74615;BME280;63121;51.458;-0.110;2022-10-29T04:07:59;101386.56;;;15.91;78.92
74615;BME280;63121;51.458;-0.110;2022-10-29T04:10:24;101387.66;;;15.82;78.87
74615;BME280;63121;51.458;-0.110;2022-10-29T04:12:51;101386.69;;;15.87;78.84
74615;BME280;63121;51.458;-0.110;2022-10-29T04:15:16;101386.66;;;15.88;79.11
74615;BME280;63121;51.458;-0.110;2022-10-29T04:17:42;101384.03;;;15.90;78.87
74615;BME280;63121;51.458;-0.110;2022-10-29T04:20:07;101381.22;;;15.99;79.06
74615;BME280;63121;51.458;-0.110;2022-10-29T04:22:33;101377.69;;;16.00;78.63
74615;BME280;63121;51.458;-0.110;2022-10-29T04:24:58;101382.91;;;16.00;78.74
74615;BME280;63121;51.458;-0.110;2022-10-29T04:27:25;101376.16;;;15.91;78.86
74615;BME280;63121;51.458;-0.110;2022-10-29T04:29:51;101376.97;;;15.95;78.86
74615;BME280;63121;51.458;-0.110;2022-10-29T04:32:16;101373.28;;;16.03;78.46
74615;BME280;63121;51.458;-0.110;2022-10-29T04:34:42;101373.38;;;16.00;78.75
74615;BME280;63121;51.458;-0.110;2022-10-29T04:37:07;101367.38;;;15.95;79.01
74615;BME280;63121;51.458;-0.110;2022-10-29T04:39:32;101356.16;;;15.93;78.93
74615;BME280;63121;51.458;-0.110;2022-10-29T04:41:58;101362.13;;;15.98;78.70
74615;BME280;63121;51.458;-0.110;2022-10-29T04:44:23;101360.38;;;15.99;78.53
74615;BME280;63121;51.458;-0.110;2022-10-29T04:46:48;101350.00;;;15.96;78.91
74615;BME280;63121;51.458;-0.110;2022-10-29T04:49:14;101340.53;;;15.93;78.67
74615;BME280;63121;51.458;-0.110;2022-10-29T04:51:39;101322.25;;;15.96;78.80
74615;BME280;63121;51.458;-0.110;2022-10-29T04:54:05;101323.38;;;15.84;78.80
74615;BME280;63121;51.458;-0.110;2022-10-29T04:56:30;101317.22;;;15.89;78.73
74615;BME280;63121;51.458;-0.110;2022-10-29T04:58:55;101314.59;;;15.89;78.68
74615;BME280;63121;51.458;-0.110;2022-10-29T05:01:21;101323.59;;;15.75;79.14
74615;BME280;63121;51.458;-0.110;2022-10-29T05:03:46;101317.22;;;15.89;78.83
74615;BME280;63121;51.458;-0.110;2022-10-29T05:06:11;101324.19;;;15.87;78.87
74615;BME280;63121;51.458;-0.110;2022-10-29T05:08:37;101320.91;;;15.78;78.85
74615;BME280;63121;51.458;-0.110;2022-10-29T05:11:04;101317.38;;;15.81;78.85
74615;BME280;63121;51.458;-0.110;2022-10-29T05:13:30;101308.56;;;15.88;78.73
74615;BME280;63121;51.458;-0.110;2022-10-29T05:15:55;101304.16;;;15.90;78.78
74615;BME280;63121;51.458;-0.110;2022-10-29T05:18:21;101301.72;;;15.82;79.23
74615;BME280;63121;51.458;-0.110;2022-10-29T05:20:46;101286.38;;;15.70;79.68
74615;BME280;63121;51.458;-0.110;2022-10-29T05:23:12;101262.94;;;15.72;79.25
74615;BME280;63121;51.458;-0.110;2022-10-29T05:25:39;101267.09;;;15.79;79.14
74615;BME280;63121;51.458;-0.110;2022-10-29T05:28:05;101254.09;;;15.79;78.88
74615;BME280;63121;51.458;-0.110;2022-10-29T05:30:32;101254.16;;;15.77;78.89
74615;BME280;63121;51.458;-0.110;2022-10-29T05:32:58;101259.28;;;15.79;78.93
74615;BME280;63121;51.458;-0.110;2022-10-29T05:35:23;101261.31;;;15.66;79.48
74615;BME280;63121;51.458;-0.110;2022-10-29T05:37:53;101259.22;;;15.43;80.24
74615;BME280;63121;51.458;-0.110;2022-10-29T05:40:20;101246.06;;;15.51;79.82
74615;BME280;63121;51.458;-0.110;2022-10-29T05:42:45;101241.81;;;15.47;80.25
74615;BME280;63121;51.458;-0.110;2022-10-29T05:45:11;101250.56;;;15.42;80.16
74615;BME280;63121;51.458;-0.110;2022-10-29T05:47:36;101260.03;;;15.45;79.75
74615;BME280;63121;51.458;-0.110;2022-10-29T05:50:02;101254.72;;;15.51;79.99
74615;BME280;63121;51.458;-0.110;2022-10-29T05:52:27;101257.06;;;15.24;80.32
74615;BME280;63121;51.458;-0.110;2022-10-29T05:54:53;101264.50;;;15.40;80.00
74615;BME280;63121;51.458;-0.110;2022-10-29T05:57:18;101269.81;;;15.35;80.58
74615;BME280;63121;51.458;-0.110;2022-10-29T05:59:45;101272.22;;;15.44;80.19
74615;BME280;63121;51.458;-0.110;2022-10-29T06:02:10;101270.44;;;15.45;79.89
74615;BME280;63121;51.458;-0.110;2022-10-29T06:04:35;101266.44;;;15.32;79.96
74615;BME280;63121;51.458;-0.110;2022-10-29T06:07:01;101251.66;;;15.32;80.41
74615;BME280;63121;51.458;-0.110;2022-10-29T06:09:26;101252.53;;;15.33;80.69
74615;BME280;63121;51.458;-0.110;2022-10-29T06:11:53;101245.00;;;15.20;80.81
74615;BME280;63121;51.458;-0.110;2022-10-29T06:14:19;101227.56;;;15.24;80.82
74615;BME280;63121;51.458;-0.110;2022-10-29T06:16:44;101223.97;;;15.30;80.67
74615;BME280;63121;51.458;-0.110;2022-10-29T06:19:09;101215.78;;;15.47;79.87
74615;BME280;63121;51.458;-0.110;2022-10-29T06:21:35;101222.06;;;15.38;79.96
74615;BME280;63121;51.458;-0.110;2022-10-29T06:24:00;101223.72;;;15.40;79.78
74615;BME280;63121;51.458;-0.110;2022-10-29T06:26:26;101214.16;;;15.42;79.93
74615;BME280;63121;51.458;-0.110;2022-10-29T06:28:51;101218.38;;;15.48;80.09
74615;BME280;63121;51.458;-0.110;2022-10-29T06:31:16;101213.16;;;15.48;80.03
74615;BME280;63121;51.458;-0.110;2022-10-29T06:33:42;101212.59;;;15.35;80.15
74615;BME280;63121;51.458;-0.110;2022-10-29T06:36:07;101216.69;;;15.45;80.30
74615;BME280;63121;51.458;-0.110;2022-10-29T06:38:33;101228.25;;;15.32;80.54
74615;BME280;63121;51.458;-0.110;2022-10-29T06:40:58;101220.06;;;15.49;80.24
74615;BME280;63121;51.458;-0.110;2022-10-29T06:43:23;101216.44;;;15.56;79.75
74615;BME280;63121;51.458;-0.110;2022-10-29T06:45:49;101214.81;;;15.52;79.33
74615;BME280;63121;51.458;-0.110;2022-10-29T06:48:15;101212.38;;;15.44;79.86
74615;BME280;63121;51.458;-0.110;2022-10-29T06:50:40;101222.72;;;15.48;79.94
74615;BME280;63121;51.458;-0.110;2022-10-29T06:53:10;101220.16;;;15.46;79.64
74615;BME280;63121;51.458;-0.110;2022-10-29T06:55:35;101221.09;;;15.43;79.96
74615;BME280;63121;51.458;-0.110;2022-10-29T06:58:03;101222.84;;;15.41;79.94
74615;BME280;63121;51.458;-0.110;2022-10-29T07:00:29;101223.72;;;15.42;80.42
74615;BME280;63121;51.458;-0.110;2022-10-29T07:02:55;101216.59;;;15.50;79.84
74615;BME280;63121;51.458;-0.110;2022-10-29T07:05:21;101214.13;;;15.44;80.42
74615;BME280;63121;51.458;-0.110;2022-10-29T07:07:47;101216.59;;;15.50;80.07
74615;BME280;63121;51.458;-0.110;2022-10-29T07:10:13;101219.31;;;15.45;80.33
74615;BME280;63121;51.458;-0.110;2022-10-29T07:12:42;101208.66;;;15.55;80.08
74615;BME280;63121;51.458;-0.110;2022-10-29T07:15:08;101209.22;;;15.68;79.48
74615;BME280;63121;51.458;-0.110;2022-10-29T07:17:34;101197.13;;;15.67;79.29
74615;BME280;63121;51.458;-0.110;2022-10-29T07:19:59;101193.53;;;15.71;79.29
74615;BME280;63121;51.458;-0.110;2022-10-29T07:22:25;101187.28;;;15.79;79.35
74615;BME280;63121;51.458;-0.110;2022-10-29T07:24:50;101171.66;;;15.79;79.69
74615;BME280;63121;51.458;-0.110;2022-10-29T07:27:15;101172.53;;;15.78;79.31
74615;BME280;63121;51.458;-0.110;2022-10-29T07:29:41;101167.31;;;15.80;80.01
74615;BME280;63121;51.458;-0.110;2022-10-29T07:32:06;101172.19;;;15.92;79.26
74615;BME280;63121;51.458;-0.110;2022-10-29T07:34:32;101173.84;;;15.96;79.17
74615;BME280;63121;51.458;-0.110;2022-10-29T07:36:57;101191.00;;;16.03;79.32
74615;BME280;63121;51.458;-0.110;2022-10-29T07:39:22;101196.06;;;16.08;78.93
74615;BME280;63121;51.458;-0.110;2022-10-29T07:41:48;101196.75;;;16.15;78.96
74615;BME280;63121;51.458;-0.110;2022-10-29T07:44:13;101206.31;;;16.16;78.72
74615;BME280;63121;51.458;-0.110;2022-10-29T07:46:38;101200.03;;;16.23;78.55
74615;BME280;63121;51.458;-0.110;2022-10-29T07:49:04;101191.22;;;16.27;78.47
74615;BME280;63121;51.458;-0.110;2022-10-29T07:51:29;101186.75;;;16.32;78.39
74615;BME280;63121;51.458;-0.110;2022-10-29T07:53:54;101205.47;;;16.46;78.20
74615;BME280;63121;51.458;-0.110;2022-10-29T07:56:20;101203.44;;;16.56;77.98
74615;BME280;63121;51.458;-0.110;2022-10-29T07:58:45;101211.22;;;16.59;77.91
74615;BME280;63121;51.458;-0.110;2022-10-29T08:01:11;101212.75;;;16.65;77.58
74615;BME280;63121;51.458;-0.110;2022-10-29T08:03:36;101229.06;;;16.72;77.60
74615;BME280;63121;51.458;-0.110;2022-10-29T08:06:01;101218.56;;;16.75;77.39
74615;BME280;63121;51.458;-0.110;2022-10-29T08:08:27;101218.53;;;16.76;77.27
74615;BME280;63121;51.458;-0.110;2022-10-29T08:10:58;101204.56;;;16.80;76.93
74615;BME280;63121;51.458;-0.110;2022-10-29T08:13:23;101213.19;;;16.82;77.33
74615;BME280;63121;51.458;-0.110;2022-10-29T08:15:48;101219.06;;;16.89;76.73
74615;BME280;63121;51.458;-0.110;2022-10-29T08:18:15;101212.88;;;16.93;76.84
74615;BME280;63121;51.458;-0.110;2022-10-29T08:20:41;101218.56;;;17.06;76.48
74615;BME280;63121;51.458;-0.110;2022-10-29T08:23:07;101224.50;;;17.11;76.94
74615;BME280;63121;51.458;-0.110;2022-10-29T08:25:32;101216.78;;;17.08;77.14
74615;BME280;63121;51.458;-0.110;2022-10-29T08:28:03;101225.97;;;17.20;76.59
74615;BME280;63121;51.458;-0.110;2022-10-29T08:30:29;101220.69;;;17.21;76.64
74615;BME280;63121;51.458;-0.110;2022-10-29T08:32:55;101209.41;;;17.21;76.64
74615;BME280;63121;51.458;-0.110;2022-10-29T08:35:21;101212.84;;;17.23;76.81
74615;BME280;63121;51.458;-0.110;2022-10-29T08:37:46;101210.97;;;17.26;77.26
74615;BME280;63121;51.458;-0.110;2022-10-29T08:45:53;101201.41;;;17.54;76.84
74615;BME280;63121;51.458;-0.110;2022-10-29T08:48:47;101200.22;;;17.64;76.08
74615;BME280;63121;51.458;-0.110;2022-10-29T08:51:23;101201.63;;;17.74;76.00
74615;BME280;63121;51.458;-0.110;2022-10-29T08:53:53;101190.06;;;17.81;75.35
74615;BME280;63121;51.458;-0.110;2022-10-29T08:56:29;101200.41;;;17.86;75.15
74615;BME280;63121;51.458;-0.110;2022-10-29T08:59:06;101204.63;;;17.90;75.25
74615;BME280;63121;51.458;-0.110;2022-10-29T09:01:34;101202.81;;;17.92;75.16
74615;BME280;63121;51.458;-0.110;2022-10-29T09:04:01;101204.28;;;17.99;75.75
74615;BME280;63121;51.458;-0.110;2022-10-29T09:06:36;101190.69;;;17.90;75.74
74615;BME280;63121;51.458;-0.110;2022-10-29T09:12:06;101196.00;;;18.13;75.22
74615;BME280;63121;51.458;-0.110;2022-10-29T09:20:11;101202.34;;;18.55;73.89
74615;BME280;63121;51.458;-0.110;2022-10-29T09:22:52;101193.25;;;18.65;73.59
74615;BME280;63121;51.458;-0.110;2022-10-29T09:25:25;101186.72;;;18.77;73.42
74615;BME280;63121;51.458;-0.110;2022-10-29T09:30:21;101193.25;;;18.88;73.52
74615;BME280;63121;51.458;-0.110;2022-10-29T09:33:03;101182.63;;;18.93;74.02
74615;BME280;63121;51.458;-0.110;2022-10-29T09:35:39;101174.13;;;19.10;73.77
74615;BME280;63121;51.458;-0.110;2022-10-29T09:38:12;101188.44;;;19.23;73.84
74615;BME280;63121;51.458;-0.110;2022-10-29T09:40:40;101186.81;;;19.41;73.36
74615;BME280;63121;51.458;-0.110;2022-10-29T09:46:50;101198.97;;;19.64;72.52
74615;BME280;63121;51.458;-0.110;2022-10-29T09:52:00;101193.53;;;19.91;71.24
74615;BME280;63121;51.458;-0.110;2022-10-29T09:54:28;101201.34;;;19.93;71.44
74615;BME280;63121;51.458;-0.110;2022-10-29T09:56:56;101208.22;;;20.16;70.89
74615;BME280;63121;51.458;-0.110;2022-10-29T09:59:29;101205.16;;;20.45;69.49
74615;BME280;63121;51.458;-0.110;2022-10-29T10:01:57;101204.66;;;20.58;68.52
74615;BME280;63121;51.458;-0.110;2022-10-29T10:04:26;101201.94;;;20.59;68.77
74615;BME280;63121;51.458;-0.110;2022-10-29T10:07:06;101202.84;;;20.79;68.71
74615;BME280;63121;51.458;-0.110;2022-10-29T10:09:57;101212.31;;;21.00;67.38
74615;BME280;63121;51.458;-0.110;2022-10-29T10:12:29;101209.03;;;21.14;66.91
74615;BME280;63121;51.458;-0.110;2022-10-29T10:15:24;101212.44;;;21.16;66.42
74615;BME280;63121;51.458;-0.110;2022-10-29T10:18:01;101204.06;;;21.08;66.74
74615;BME280;63121;51.458;-0.110;2022-10-29T10:22:55;101219.47;;;21.16;66.73
74615;BME280;63121;51.458;-0.110;2022-10-29T10:25:36;101216.38;;;21.25;65.60
74615;BME280;63121;51.458;-0.110;2022-10-29T10:28:24;101213.69;;;21.45;65.36
74615;BME280;63121;51.458;-0.110;2022-10-29T10:31:11;101215.25;;;21.49;65.77
74615;BME280;63121;51.458;-0.110;2022-10-29T10:33:51;101210.63;;;21.55;65.47
74615;BME280;63121;51.458;-0.110;2022-10-29T10:36:21;101212.25;;;21.57;65.06
74615;BME280;63121;51.458;-0.110;2022-10-29T10:38:53;101219.97;;;21.78;64.29
74615;BME280;63121;51.458;-0.110;2022-10-29T10:41:31;101220.44;;;21.86;63.89
74615;BME280;63121;51.458;-0.110;2022-10-29T10:44:00;101211.00;;;21.82;63.61
74615;BME280;63121;51.458;-0.110;2022-10-29T10:49:17;101208.28;;;22.36;62.18
74615;BME280;63121;51.458;-0.110;2022-10-29T10:51:45;101210.47;;;22.27;62.49
74615;BME280;63121;51.458;-0.110;2022-10-29T10:54:26;101218.09;;;22.49;61.93
74615;BME280;63121;51.458;-0.110;2022-10-29T10:59:24;101212.09;;;22.12;62.29
74615;BME280;63121;51.458;-0.110;2022-10-29T11:01:53;101210.41;;;22.11;63.09
74615;BME280;63121;51.458;-0.110;2022-10-29T11:04:33;101219.53;;;22.04;62.36
74615;BME280;63121;51.458;-0.110;2022-10-29T11:07:07;101220.53;;;22.02;62.61
74615;BME280;63121;51.458;-0.110;2022-10-29T11:09:39;101227.78;;;22.14;62.34
74615;BME280;63121;51.458;-0.110;2022-10-29T11:12:14;101225.25;;;21.95;62.73
74615;BME280;63121;51.458;-0.110;2022-10-29T11:14:48;101209.84;;;22.22;62.59
74615;BME280;63121;51.458;-0.110;2022-10-29T11:17:56;101200.03;;;22.26;62.61
74615;BME280;63121;51.458;-0.110;2022-10-29T11:20:25;101199.13;;;22.27;61.95
74615;BME280;63121;51.458;-0.110;2022-10-29T11:23:03;101190.56;;;22.39;61.32
74615;BME280;63121;51.458;-0.110;2022-10-29T11:25:44;101190.47;;;22.07;62.13
74615;BME280;63121;51.458;-0.110;2022-10-29T11:30:50;101188.88;;;22.38;61.28
74615;BME280;63121;51.458;-0.110;2022-10-29T11:33:29;101185.06;;;22.60;60.58
74615;BME280;63121;51.458;-0.110;2022-10-29T11:36:17;101165.22;;;22.54;60.96
74615;BME280;63121;51.458;-0.110;2022-10-29T11:39:15;101152.59;;;22.61;60.39
74615;BME280;63121;51.458;-0.110;2022-10-29T11:41:47;101156.22;;;22.74;59.99
74615;BME280;63121;51.458;-0.110;2022-10-29T11:44:15;101151.41;;;22.66;59.71
74615;BME280;63121;51.458;-0.110;2022-10-29T11:52:12;101143.16;;;22.88;59.42
74615;BME280;63121;51.458;-0.110;2022-10-29T11:57:30;101126.81;;;22.98;59.34
74615;BME280;63121;51.458;-0.110;2022-10-29T12:13:29;101128.69;;;23.27;58.10
74615;BME280;63121;51.458;-0.110;2022-10-29T12:22:51;101116.25;;;23.29;57.63
74615;BME280;63121;51.458;-0.110;2022-10-29T12:25:04;101117.16;;;23.44;57.56
74615;BME280;63121;51.458;-0.110;2022-10-29T12:27:36;101105.25;;;23.53;56.78
74615;BME280;63121;51.458;-0.110;2022-10-29T12:30:10;101103.00;;;23.61;57.36
74615;BME280;63121;51.458;-0.110;2022-10-29T12:35:21;101101.91;;;23.80;56.68
74615;BME280;63121;51.458;-0.110;2022-10-29T12:40:27;101107.41;;;23.61;56.39
74615;BME280;63121;51.458;-0.110;2022-10-29T12:42:56;101100.47;;;23.74;56.27
74615;BME280;63121;51.458;-0.110;2022-10-29T12:48:21;101094.38;;;23.88;55.89
74615;BME280;63121;51.458;-0.110;2022-10-29T12:53:58;101087.81;;;23.81;55.69
74615;BME280;63121;51.458;-0.110;2022-10-29T12:56:31;101081.78;;;23.93;55.47
74615;BME280;63121;51.458;-0.110;2022-10-29T12:59:24;101087.06;;;23.93;55.47
74615;BME280;63121;51.458;-0.110;2022-10-29T13:01:52;101076.25;;;23.67;56.02
74615;BME280;63121;51.458;-0.110;2022-10-29T13:04:29;101071.38;;;23.75;55.50
74615;BME280;63121;51.458;-0.110;2022-10-29T13:09:36;101068.25;;;23.54;56.42
74615;BME280;63121;51.458;-0.110;2022-10-29T13:12:10;101070.13;;;23.67;56.32
74615;BME280;63121;51.458;-0.110;2022-10-29T13:17:26;101065.44;;;23.58;56.75
74615;BME280;63121;51.458;-0.110;2022-10-29T13:20:18;101065.25;;;23.61;56.62
74615;BME280;63121;51.458;-0.110;2022-10-29T13:22:55;101064.72;;;23.84;56.08
74615;BME280;63121;51.458;-0.110;2022-10-29T13:30:37;101047.38;;;23.94;55.29
74615;BME280;63121;51.458;-0.110;2022-10-29T13:38:59;101058.44;;;23.87;55.43
74615;BME280;63121;51.458;-0.110;2022-10-29T13:46:51;101052.56;;;23.82;55.71
74615;BME280;63121;51.458;-0.110;2022-10-29T13:49:31;101055.66;;;24.17;54.82
74615;BME280;63121;51.458;-0.110;2022-10-29T13:52:02;101056.09;;;24.38;54.41
74615;BME280;63121;51.458;-0.110;2022-10-29T13:54:50;101064.38;;;24.61;53.60
74615;BME280;63121;51.458;-0.110;2022-10-29T13:57:18;101051.34;;;24.58;53.70
74615;BME280;63121;51.458;-0.110;2022-10-29T13:59:53;101055.84;;;24.70;53.93
74615;BME280;63121;51.458;-0.110;2022-10-29T14:02:30;101054.09;;;24.56;54.08
74615;BME280;63121;51.458;-0.110;2022-10-29T14:07:46;101059.94;;;24.47;53.71
74615;BME280;63121;51.458;-0.110;2022-10-29T14:18:39;101050.97;;;24.64;53.81
74615;BME280;63121;51.458;-0.110;2022-10-29T14:21:10;101051.19;;;24.61;53.92
74615;BME280;63121;51.458;-0.110;2022-10-29T14:23:36;101044.13;;;24.74;52.77
74615;BME280;63121;51.458;-0.110;2022-10-29T14:26:13;101050.97;;;25.44;51.33
74615;BME280;63121;51.458;-0.110;2022-10-29T14:28:39;101056.38;;;25.81;50.62
74615;BME280;63121;51.458;-0.110;2022-10-29T14:31:13;101056.19;;;26.33;49.11
74615;BME280;63121;51.458;-0.110;2022-10-29T14:33:41;101056.22;;;26.08;50.19
74615;BME280;63121;51.458;-0.110;2022-10-29T14:38:49;101058.66;;;24.94;52.85
74615;BME280;63121;51.458;-0.110;2022-10-29T14:41:17;101058.13;;;24.47;53.76
74615;BME280;63121;51.458;-0.110;2022-10-29T14:43:43;101062.88;;;24.57;53.88
74615;BME280;63121;51.458;-0.110;2022-10-29T14:46:11;101057.47;;;23.88;55.46
74615;BME280;63121;51.458;-0.110;2022-10-29T14:48:50;101061.38;;;24.38;54.64
74615;BME280;63121;51.458;-0.110;2022-10-29T14:51:20;101059.56;;;24.39;54.63
74615;BME280;63121;51.458;-0.110;2022-10-29T14:53:51;101049.22;;;24.50;55.16
74615;BME280;63121;51.458;-0.110;2022-10-29T14:56:18;101055.97;;;24.81;53.59
74615;BME280;63121;51.458;-0.110;2022-10-29T14:58:45;101064.13;;;24.78;54.00
74615;BME280;63121;51.458;-0.110;2022-10-29T15:01:12;101057.78;;;24.53;54.34
74615;BME280;63121;51.458;-0.110;2022-10-29T15:03:38;101066.66;;;24.38;54.97
74615;BME280;63121;51.458;-0.110;2022-10-29T15:06:13;101069.00;;;24.43;55.53
74615;BME280;63121;51.458;-0.110;2022-10-29T15:08:40;101064.28;;;23.47;58.04